Time;durP1;ratioP1;P1;durP2;ratioP2;P2;SDS_P1;SDS_P2;PMS_P1;PMS_P2;Temp;Humidity;BMP_temperature;BMP_pressure;BME280_temperature;BME280_humidity;BME280_pressure;Samples;Min_cycle;Max_cycle;Signal;HPM_P1;HPM_P2
2022/06/22 00:00:59;;;;;;;17.13;10.32;;;;;;;;;;5014173;28;20022;-64
2022/06/22 00:03:25;;;;;;;18.60;9.63;;;;;;;;;;5014182;28;20053;-64
2022/06/22 00:05:52;;;;;;;15.68;9.68;;;;;;;;;;4996527;28;20034;-64
2022/06/22 00:08:28;;;;;;;15.95;9.80;;;;;;;;;;5014761;28;20438;-64
2022/06/22 00:10:54;;;;;;;17.52;9.90;;;;;;;;;;5014621;28;20022;-64
2022/06/22 00:13:23;;;;;;;18.35;9.85;;;;;;;;;;5013710;28;20052;-65
2022/06/22 00:15:49;;;;;;;;;;;;;;;;;;5014400;28;20045;-64
2022/06/22 00:18:20;;;;;;;14.88;9.52;;;;;;;;;;5012984;28;19912;-64
2022/06/22 00:20:54;;;;;;;21.05;10.75;;;;;;;;;;4996202;28;20022;-65
2022/06/22 00:23:25;;;;;;;18.70;10.13;;;;;;;;;;5013526;28;20045;-65
2022/06/22 00:25:58;;;;;;;18.15;10.32;;;;;;;;;;5013889;28;20045;-64
2022/06/22 00:28:24;;;;;;;18.17;10.00;;;;;;;;;;5012812;28;20014;-65
2022/06/22 00:30:50;;;;;;;15.27;9.57;;;;;;;;;;5012441;28;20113;-64
2022/06/22 00:33:22;;;;;;;16.35;9.73;;;;;;;;;;5013699;28;20400;-65
2022/06/22 00:35:50;;;;;;;18.20;10.10;;;;;;;;;;5012840;28;20083;-65
2022/06/22 00:38:16;;;;;;;;;;;;;;;;;;5013126;28;20176;-65
2022/06/22 00:40:43;;;;;;;19.42;9.75;;;;;;;;;;5013590;28;20385;-65
2022/06/22 00:43:13;;;;;;;18.83;9.80;;;;;;;;;;5013509;28;20390;-64
2022/06/22 00:45:40;;;;;;;22.88;9.75;;;;;;;;;;5013465;28;20057;-64
2022/06/22 00:48:12;;;;;;;17.70;9.75;;;;;;;;;;5012120;28;20038;-64
2022/06/22 00:50:44;;;;;;;15.57;9.60;;;;;;;;;;5012713;28;20022;-63
2022/06/22 00:53:16;;;;;;;15.68;9.90;;;;;;;;;;5013143;28;20510;-64
2022/06/22 00:55:48;;;;;;;16.25;9.50;;;;;;;;;;4995514;28;20133;-64
2022/06/22 00:58:17;;;;;;;17.23;9.45;;;;;;;;;;5012320;28;20026;-63
2022/06/22 01:00:49;;;;;;;16.00;9.90;;;;;;;;;;5011349;28;20390;-63
2022/06/22 01:03:24;;;;;;;16.92;9.88;;;;;;;;;;4993241;28;20029;-64
2022/06/22 01:05:56;;;;;;;18.55;10.13;;;;;;;;;;5011154;28;20022;-64
2022/06/22 01:08:28;;;;;;;15.05;9.32;;;;;;;;;;5010416;28;20124;-63
2022/06/22 01:10:54;;;;;;;20.63;10.07;;;;;;;;;;5011290;28;20097;-64
2022/06/22 01:15:59;;;;;;;16.88;9.98;;;;;;;;;;5029599;28;20414;-60
2022/06/22 01:18:41;;;;;;;18.05;10.10;;;;;;;;;;5031234;28;20113;-62
2022/06/22 01:21:19;;;;;;;18.90;10.63;;;;;;;;;;5031938;28;20097;-63
2022/06/22 01:24:03;;;;;;;16.95;9.80;;;;;;;;;;5030700;28;20450;-63
2022/06/22 01:26:42;;;;;;;18.30;10.20;;;;;;;;;;5032231;28;20053;-63
2022/06/22 01:29:12;;;;;;;17.10;9.98;;;;;;;;;;5031366;28;20028;-63
2022/06/22 01:31:42;;;;;;;17.30;10.50;;;;;;;;;;5032062;28;20026;-62
2022/06/22 01:34:14;;;;;;;20.90;10.13;;;;;;;;;;5014346;28;20396;-63
2022/06/22 01:36:40;;;;;;;16.70;10.40;;;;;;;;;;5014290;28;20026;-60
2022/06/22 01:39:06;;;;;;;16.20;10.45;;;;;;;;;;5013558;28;20030;-63
2022/06/22 01:41:36;;;;;;;18.50;10.10;;;;;;;;;;5031880;28;20030;-63
2022/06/22 01:44:19;;;;;;;20.58;10.82;;;;;;;;;;5014039;28;20040;-61
2022/06/22 01:46:49;;;;;;;17.58;10.05;;;;;;;;;;5015515;28;20028;-61
2022/06/22 01:49:18;;;;;;;22.15;10.32;;;;;;;;;;5017549;28;20021;-63
2022/06/22 01:52:06;;;;;;;18.27;10.25;;;;;;;;;;5035424;28;20017;-63
2022/06/22 01:54:43;;;;;;;17.55;10.10;;;;;;;;;;5035653;28;20047;-62
2022/06/22 01:57:09;;;;;;;17.92;10.73;;;;;;;;;;5035428;28;20029;-58
2022/06/22 01:59:38;;;;;;;20.05;10.48;;;;;;;;;;5035302;28;20151;-63
2022/06/22 02:02:13;;;;;;;16.90;9.55;;;;;;;;;;5035709;28;20057;-63
2022/06/22 02:04:48;;;;;;;19.85;10.45;;;;;;;;;;5035455;28;20037;-61
2022/06/22 02:10:16;;;;;;;18.27;9.80;;;;;;;;;;5035523;28;20040;-62
2022/06/22 02:12:45;;;;;;;17.13;9.70;;;;;;;;;;5035600;28;20025;-62
2022/06/22 02:15:34;;;;;;;19.90;11.23;;;;;;;;;;5035096;28;20096;-63
2022/06/22 02:18:02;;;;;;;17.45;10.20;;;;;;;;;;5021705;28;20034;-62
2022/06/22 02:20:31;;;;;;;16.63;9.80;;;;;;;;;;5035121;28;20032;-62
2022/06/22 02:22:57;;;;;;;;;;;;;;;;;;5035605;28;20266;-62
2022/06/22 02:25:24;;;;;;;16.63;10.10;;;;;;;;;;5035118;28;19909;-62
2022/06/22 02:27:50;;;;;;;22.73;10.40;;;;;;;;;;5034152;28;20531;-63
2022/06/22 02:30:16;;;;;;;17.20;10.10;;;;;;;;;;5017116;28;20033;-61
2022/06/22 02:32:44;;;;;;;19.40;10.00;;;;;;;;;;5034801;28;20057;-62
2022/06/22 02:35:11;;;;;;;16.27;10.03;;;;;;;;;;5034714;28;20112;-59
2022/06/22 02:37:42;;;;;;;19.42;10.00;;;;;;;;;;5034340;28;20401;-62
2022/06/22 02:40:12;;;;;;;20.35;9.80;;;;;;;;;;5034981;28;20075;-61
2022/06/22 02:45:24;;;;;;;19.17;9.93;;;;;;;;;;5034734;28;20099;-61
2022/06/22 02:47:50;;;;;;;20.13;9.88;;;;;;;;;;5034226;28;20022;-63
2022/06/22 02:50:25;;;;;;;18.35;9.93;;;;;;;;;;5034572;28;20416;-62
2022/06/22 02:52:53;;;;;;;20.17;10.30;;;;;;;;;;5034541;28;20482;-62
2022/06/22 02:55:21;;;;;;;17.35;10.18;;;;;;;;;;5034339;28;20044;-63
2022/06/22 02:57:47;;;;;;;;;;;;;;;;;;5033642;28;20087;-61
2022/06/22 03:00:14;;;;;;;18.90;10.23;;;;;;;;;;5034201;28;20366;-61
2022/06/22 03:02:43;;;;;;;20.60;10.70;;;;;;;;;;5034533;28;20025;-61
2022/06/22 03:05:11;;;;;;;17.92;10.70;;;;;;;;;;5016459;28;20033;-62
2022/06/22 03:07:42;;;;;;;17.97;9.87;;;;;;;;;;5033655;28;20028;-61
2022/06/22 03:10:11;;;;;;;17.67;10.57;;;;;;;;;;5034059;28;20399;-61
2022/06/22 03:12:38;;;;;;;19.13;10.80;;;;;;;;;;5034411;28;20049;-61
2022/06/22 03:15:05;;;;;;;19.45;11.57;;;;;;;;;;5034073;28;20057;-62
2022/06/22 03:17:34;;;;;;;19.90;11.05;;;;;;;;;;5015967;28;20389;-63
2022/06/22 03:20:00;;;;;;;18.45;10.35;;;;;;;;;;5016517;28;20034;-61
2022/06/22 03:22:29;;;;;;;19.45;11.07;;;;;;;;;;5034174;28;20025;-61
2022/06/22 03:24:59;;;;;;;19.23;11.30;;;;;;;;;;5033690;28;20087;-62
2022/06/22 03:27:30;;;;;;;18.55;10.48;;;;;;;;;;5033151;28;20079;-60
2022/06/22 03:29:59;;;;;;;18.08;10.52;;;;;;;;;;5016212;28;20378;-63
2022/06/22 03:32:28;;;;;;;19.30;10.57;;;;;;;;;;5015967;28;20436;-61
2022/06/22 03:35:02;;;;;;;18.13;10.82;;;;;;;;;;5033730;28;20026;-62
2022/06/22 03:37:43;;;;;;;17.95;10.60;;;;;;;;;;5015201;28;20088;-62
2022/06/22 03:40:12;;;;;;;19.23;10.75;;;;;;;;;;5016071;28;20029;-61
2022/06/22 03:42:42;;;;;;;24.25;10.07;;;;;;;;;;5033679;28;20021;-63
2022/06/22 03:45:12;;;;;;;19.00;10.50;;;;;;;;;;5033432;28;20029;-62
2022/06/22 03:47:38;;;;;;;21.58;9.98;;;;;;;;;;5032519;28;20412;-62
2022/06/22 03:50:07;;;;;;;17.27;10.32;;;;;;;;;;5033463;28;20018;-62
2022/06/22 03:52:42;;;;;;;20.25;10.57;;;;;;;;;;5033430;28;20026;-61
2022/06/22 03:55:08;;;;;;;17.52;9.95;;;;;;;;;;5033410;28;20030;-60
2022/06/22 03:57:37;;;;;;;17.95;10.30;;;;;;;;;;5032632;28;20428;-61
2022/06/22 04:00:03;;;;;;;;;;;;;;;;;;5033736;28;20029;-63
2022/06/22 04:02:29;;;;;;;18.27;10.30;;;;;;;;;;5033154;28;19920;-63
2022/06/22 04:04:58;;;;;;;19.50;10.23;;;;;;;;;;5032969;28;20048;-62
2022/06/22 04:07:25;;;;;;;21.50;10.98;;;;;;;;;;5032363;28;20028;-63
2022/06/22 04:09:55;;;;;;;20.35;11.05;;;;;;;;;;5032304;28;20030;-62
2022/06/22 04:12:31;;;;;;;21.00;11.45;;;;;;;;;;5033158;28;20091;-60
2022/06/22 04:15:19;;;;;;;17.13;10.43;;;;;;;;;;5032687;28;20033;-63
2022/06/22 04:17:47;;;;;;;18.45;10.27;;;;;;;;;;5014456;28;20103;-62
2022/06/22 04:20:21;;;;;;;18.80;10.63;;;;;;;;;;5033243;28;20551;-63
2022/06/22 04:22:49;;;;;;;19.75;10.40;;;;;;;;;;5033051;28;20025;-61
2022/06/22 04:25:15;;;;;;;18.10;10.30;;;;;;;;;;5014994;28;20029;-62
2022/06/22 04:27:43;;;;;;;21.63;10.38;;;;;;;;;;5032001;28;20120;-61
2022/06/22 04:30:26;;;;;;;18.25;10.48;;;;;;;;;;5032440;28;20025;-60
2022/06/22 04:33:10;;;;;;;19.45;10.00;;;;;;;;;;5032290;28;20021;-64
2022/06/22 04:35:53;;;;;;;24.05;11.57;;;;;;;;;;5032282;28;20025;-61
2022/06/22 04:38:21;;;;;;;17.90;9.52;;;;;;;;;;5031620;28;20057;-63
2022/06/22 04:40:53;;;;;;;20.42;10.48;;;;;;;;;;5032217;28;20104;-63
2022/06/22 04:43:19;;;;;;;19.30;10.57;;;;;;;;;;5014398;28;20382;-63
2022/06/22 04:45:46;;;;;;;18.15;10.23;;;;;;;;;;5031673;28;20470;-61
2022/06/22 04:48:23;;;;;;;17.42;10.98;;;;;;;;;;5030936;28;20025;-55
2022/06/22 04:50:51;;;;;;;22.40;11.32;;;;;;;;;;5014321;28;20162;-62
2022/06/22 04:53:23;;;;;;;15.77;9.77;;;;;;;;;;5032049;28;20018;-63
2022/06/22 04:55:51;;;;;;;19.00;11.25;;;;;;;;;;5032041;28;20374;-63
2022/06/22 04:58:34;;;;;;;18.48;10.52;;;;;;;;;;5031382;28;20444;-61
2022/06/22 05:01:00;;;;;;;18.17;10.55;;;;;;;;;;5031624;28;20025;-62
2022/06/22 05:03:28;;;;;;;18.00;9.77;;;;;;;;;;5014165;28;20092;-61
2022/06/22 05:05:56;;;;;;;18.98;11.55;;;;;;;;;;5032063;28;20484;-62
2022/06/22 05:08:28;;;;;;;18.45;10.80;;;;;;;;;;5031355;28;20378;-60
2022/06/22 05:11:03;;;;;;;17.98;11.00;;;;;;;;;;5031799;28;20022;-61
2022/06/22 05:13:29;;;;;;;17.80;11.32;;;;;;;;;;5032021;28;20095;-60
2022/06/22 05:15:56;;;;;;;17.92;11.00;;;;;;;;;;5031639;28;20026;-61
2022/06/22 05:18:24;;;;;;;19.27;11.48;;;;;;;;;;5012924;28;20446;-61
2022/06/22 05:20:54;;;;;;;16.55;10.80;;;;;;;;;;5013236;28;20056;-60
2022/06/22 05:23:22;;;;;;;19.80;11.73;;;;;;;;;;5031489;28;20017;-56
2022/06/22 05:25:52;;;;;;;17.17;11.17;;;;;;;;;;5031100;28;20030;-61
2022/06/22 05:28:31;;;;;;;18.77;10.38;;;;;;;;;;5030815;28;20041;-60
2022/06/22 05:31:18;;;;;;;19.90;10.77;;;;;;;;;;5013659;28;20029;-62
2022/06/22 05:33:46;;;;;;;16.92;10.60;;;;;;;;;;5031656;28;20033;-59
2022/06/22 05:36:13;;;;;;;17.73;10.57;;;;;;;;;;5013730;28;20021;-64
2022/06/22 05:38:42;;;;;;;16.33;10.20;;;;;;;;;;5030852;28;20437;-61
2022/06/22 05:41:09;;;;;;;18.67;10.63;;;;;;;;;;5013798;28;20017;-63
2022/06/22 05:43:40;;;;;;;18.92;10.77;;;;;;;;;;5030913;28;20026;-63
2022/06/22 05:46:06;;;;;;;17.27;10.38;;;;;;;;;;5031126;28;20033;-61
2022/06/22 05:48:34;;;;;;;19.67;11.40;;;;;;;;;;5030425;28;20477;-63
2022/06/22 05:51:02;;;;;;;18.40;10.60;;;;;;;;;;5030175;28;20119;-63
2022/06/22 05:53:30;;;;;;;16.45;10.15;;;;;;;;;;5030993;28;20438;-63
2022/06/22 05:56:10;;;;;;;15.88;10.80;;;;;;;;;;5031167;28;20029;-63
2022/06/22 05:58:36;;;;;;;16.30;10.65;;;;;;;;;;5012995;28;20031;-63
2022/06/22 06:01:03;;;;;;;16.90;10.20;;;;;;;;;;5030996;28;20026;-62
2022/06/22 06:03:39;;;;;;;18.05;10.40;;;;;;;;;;5030761;28;20049;-61
2022/06/22 06:06:10;;;;;;;16.95;9.93;;;;;;;;;;5031434;28;20118;-62
2022/06/22 06:08:36;;;;;;;16.45;10.18;;;;;;;;;;5012713;28;20021;-61
2022/06/22 06:11:04;;;;;;;17.48;10.35;;;;;;;;;;5031152;28;20044;-59
2022/06/22 06:13:30;;;;;;;17.38;9.98;;;;;;;;;;5030580;28;20358;-62
2022/06/22 06:15:59;;;;;;;18.10;10.40;;;;;;;;;;5031178;28;20040;-62
2022/06/22 06:18:25;;;;;;;;;;;;;;;;;;5031056;28;20021;-64
2022/06/22 06:20:55;;;;;;;17.33;10.90;;;;;;;;;;5013463;28;20298;-61
2022/06/22 06:23:21;;;;;;;17.52;10.93;;;;;;;;;;5030859;28;20112;-62
2022/06/22 06:28:39;;;;;;;15.43;10.50;;;;;;;;;;5030599;28;20084;-62
2022/06/22 06:31:08;;;;;;;21.20;11.48;;;;;;;;;;5031100;28;20025;-62
2022/06/22 06:33:35;;;;;;;15.85;10.57;;;;;;;;;;5031987;28;20018;-61
2022/06/22 06:36:07;;;;;;;18.13;10.90;;;;;;;;;;5017012;28;20501;-62
2022/06/22 06:38:38;;;;;;;18.52;11.75;;;;;;;;;;5033633;28;20417;-63
2022/06/22 06:41:04;;;;;;;16.80;10.57;;;;;;;;;;5034576;28;20110;-62
2022/06/22 06:43:36;;;;;;;21.00;11.75;;;;;;;;;;5016629;28;20558;-61
2022/06/22 06:46:04;;;;;;;18.58;11.52;;;;;;;;;;5034301;28;20478;-60
2022/06/22 06:48:31;;;;;;;17.60;12.38;;;;;;;;;;5033489;28;20048;-63
2022/06/22 06:50:59;;;;;;;19.65;12.75;;;;;;;;;;5033870;28;20035;-62
2022/06/22 06:53:25;;;;;;;17.33;11.30;;;;;;;;;;5034054;28;20037;-56
2022/06/22 06:55:58;;;;;;;18.90;11.40;;;;;;;;;;5033915;28;20029;-62
2022/06/22 06:58:40;;;;;;;18.70;11.10;;;;;;;;;;5033271;28;20489;-63
2022/06/22 07:01:06;;;;;;;17.45;11.15;;;;;;;;;;5034443;28;20025;-62
2022/06/22 07:03:36;;;;;;;16.08;10.60;;;;;;;;;;5033785;28;20496;-62
2022/06/22 07:06:03;;;;;;;17.23;11.27;;;;;;;;;;5034031;28;20362;-59
2022/06/22 07:08:42;;;;;;;18.63;11.35;;;;;;;;;;5030582;28;20088;-62
2022/06/22 07:11:21;;;;;;;16.90;11.07;;;;;;;;;;5028758;28;20459;-62
2022/06/22 07:13:49;;;;;;;17.92;11.65;;;;;;;;;;5034163;28;20401;-63
2022/06/22 07:16:18;;;;;;;16.13;11.02;;;;;;;;;;5068888;23;20053;-65
2022/06/22 07:18:47;;;;;;;15.57;11.10;;;;;;;;;;5053351;28;20071;-65
2022/06/22 07:21:34;;;;;;;16.63;11.05;;;;;;;;;;5054043;28;20048;-65
2022/06/22 07:24:06;;;;;;;19.67;11.60;;;;;;;;;;5046025;28;20032;-64
2022/06/22 07:26:39;;;;;;;17.33;11.63;;;;;;;;;;5013757;28;20478;-65
2022/06/22 07:29:14;;;;;;;16.10;11.30;;;;;;;;;;5013554;28;20022;-64
2022/06/22 07:31:46;;;;;;;19.42;11.65;;;;;;;;;;5014013;28;20058;-65
2022/06/22 07:34:16;;;;;;;17.52;11.10;;;;;;;;;;4997158;28;20025;-65
2022/06/22 07:36:46;;;;;;;16.65;11.13;;;;;;;;;;5013863;28;20038;-65
2022/06/22 07:39:15;;;;;;;16.77;10.77;;;;;;;;;;5013392;28;20450;-65
2022/06/22 07:41:41;;;;;;;17.27;11.10;;;;;;;;;;5007895;28;20040;-65
2022/06/22 07:44:24;;;;;;;15.50;11.25;;;;;;;;;;5033208;28;20064;-65
2022/06/22 07:46:52;;;;;;;17.67;11.38;;;;;;;;;;5015943;28;20108;-65
2022/06/22 07:49:18;;;;;;;;;;;;;;;;;;5033206;28;20083;-65
2022/06/22 07:51:49;;;;;;;16.77;11.57;;;;;;;;;;5033155;28;19909;-65
2022/06/22 07:54:24;;;;;;;19.52;11.70;;;;;;;;;;5033331;28;20033;-65
2022/06/22 07:57:01;;;;;;;20.38;11.52;;;;;;;;;;5033182;28;20029;-65
2022/06/22 07:59:32;;;;;;;16.90;11.65;;;;;;;;;;5032521;28;20079;-64
2022/06/22 08:01:59;;;;;;;18.17;11.63;;;;;;;;;;5033207;28;20508;-64
2022/06/22 08:04:27;;;;;;;16.92;11.10;;;;;;;;;;5033456;28;20025;-64
2022/06/22 08:06:56;;;;;;;17.20;11.50;;;;;;;;;;5032804;28;20060;-64
2022/06/22 08:09:22;;;;;;;;;;;;;;;;;;5032334;28;20422;-64
2022/06/22 08:11:55;;;;;;;16.63;11.60;;;;;;;;;;5015513;28;19909;-65
2022/06/22 08:14:41;;;;;;;17.17;11.90;;;;;;;;;;5033107;28;20025;-64
2022/06/22 08:17:17;;;;;;;17.35;11.80;;;;;;;;;;5032534;28;20032;-64
2022/06/22 08:19:43;;;;;;;18.30;12.27;;;;;;;;;;5032767;28;20072;-64
2022/06/22 08:22:10;;;;;;;18.08;13.00;;;;;;;;;;5032748;28;20497;-64
2022/06/22 08:24:40;;;;;;;16.02;11.38;;;;;;;;;;5032836;28;20060;-65
2022/06/22 08:27:09;;;;;;;16.83;12.25;;;;;;;;;;5032300;28;20120;-64
2022/06/22 08:29:35;;;;;;;16.73;12.27;;;;;;;;;;5032632;28;20021;-64
2022/06/22 08:32:13;;;;;;;16.00;11.88;;;;;;;;;;5032731;28;20022;-64
2022/06/22 08:34:45;;;;;;;16.60;11.55;;;;;;;;;;5032728;28;20045;-64
2022/06/22 08:37:14;;;;;;;15.40;12.00;;;;;;;;;;5031672;28;20052;-63
2022/06/22 08:39:43;;;;;;;17.45;12.05;;;;;;;;;;5032526;28;20029;-63
2022/06/22 08:42:32;;;;;;;19.55;12.52;;;;;;;;;;5032436;28;20711;-63
2022/06/22 08:45:17;;;;;;;16.58;11.95;;;;;;;;;;5019796;28;20045;-64
2022/06/22 08:47:46;;;;;;;15.95;12.10;;;;;;;;;;5014311;28;20030;-63
2022/06/22 08:50:12;;;;;;;17.60;12.30;;;;;;;;;;5032468;28;20017;-63
2022/06/22 08:52:57;;;;;;;16.85;12.23;;;;;;;;;;5032592;28;20025;-62
2022/06/22 08:55:28;;;;;;;19.30;12.75;;;;;;;;;;5032409;28;20083;-66
2022/06/22 08:57:54;;;;;;;18.50;12.13;;;;;;;;;;5031705;28;20025;-64
2022/06/22 09:00:28;;;;;;;21.52;12.20;;;;;;;;;;5015423;28;20116;-64
2022/06/22 09:03:12;;;;;;;20.30;12.30;;;;;;;;;;5033243;28;20393;-64
2022/06/22 09:05:43;;;;;;;17.48;11.77;;;;;;;;;;5032825;28;20029;-64
2022/06/22 09:08:12;;;;;;;19.67;12.10;;;;;;;;;;5032001;28;20397;-64
2022/06/22 09:10:44;;;;;;;18.10;12.02;;;;;;;;;;5032840;28;20022;-65
2022/06/22 09:13:37;;;;;;;17.92;12.77;;;;;;;;;;5032651;28;20385;-65
2022/06/22 09:16:28;;;;;;;17.90;12.70;;;;;;;;;;5030232;28;20055;-72
2022/06/22 09:19:12;;;;;;;17.73;11.93;;;;;;;;;;5032235;28;20109;-65
2022/06/22 09:21:41;;;;;;;17.10;11.88;;;;;;;;;;5032394;28;20029;-65
2022/06/22 09:24:12;;;;;;;17.73;12.30;;;;;;;;;;5032178;28;20022;-64
2022/06/22 09:26:56;;;;;;;18.27;12.32;;;;;;;;;;5032624;28;20540;-65
2022/06/22 09:29:22;;;;;;;20.33;12.00;;;;;;;;;;5031524;28;20040;-63
2022/06/22 09:31:51;;;;;;;19.80;11.55;;;;;;;;;;5032819;28;20029;-65
2022/06/22 09:34:20;;;;;;;17.73;11.80;;;;;;;;;;5032583;28;20036;-65
2022/06/22 09:37:15;;;;;;;17.65;11.60;;;;;;;;;;5032629;28;20124;-65
2022/06/22 09:39:59;;;;;;;17.77;11.82;;;;;;;;;;5034184;28;20025;-66
2022/06/22 09:42:37;;;;;;;16.05;11.20;;;;;;;;;;5032977;28;20022;-64
2022/06/22 09:45:11;;;;;;;18.45;11.25;;;;;;;;;;5032119;28;20504;-64
2022/06/22 09:47:43;;;;;;;19.67;11.35;;;;;;;;;;5031632;28;20098;-65
2022/06/22 09:50:09;;;;;;;17.50;11.98;;;;;;;;;;5032587;28;20017;-64
2022/06/22 09:52:50;;;;;;;16.58;11.65;;;;;;;;;;5008909;28;20018;-64
2022/06/22 09:58:18;;;;;;;17.33;11.60;;;;;;;;;;5012670;28;20076;-65
2022/06/22 10:01:11;;;;;;;18.45;11.75;;;;;;;;;;5012928;28;20574;-64
2022/06/22 10:04:04;;;;;;;16.52;11.25;;;;;;;;;;4994932;28;20026;-64
2022/06/22 10:06:33;;;;;;;17.02;11.43;;;;;;;;;;5013344;28;20025;-65
2022/06/22 10:09:18;;;;;;;20.35;11.75;;;;;;;;;;5025711;28;20401;-64
2022/06/22 10:11:47;;;;;;;18.73;11.65;;;;;;;;;;5018355;28;20053;-66
2022/06/22 10:14:32;;;;;;;15.63;11.15;;;;;;;;;;5035408;28;20037;-66
2022/06/22 10:17:16;;;;;;;18.80;11.60;;;;;;;;;;5036119;28;20030;-66
2022/06/22 10:19:42;;;;;;;20.15;11.80;;;;;;;;;;5035769;28;20060;-65
2022/06/22 10:22:26;;;;;;;16.98;11.90;;;;;;;;;;5035840;28;20094;-64
2022/06/22 10:25:02;;;;;;;19.00;11.70;;;;;;;;;;5035886;28;20030;-65
2022/06/22 10:27:53;;;;;;;18.55;11.50;;;;;;;;;;5035348;28;20029;-65
2022/06/22 10:30:22;;;;;;;16.23;11.35;;;;;;;;;;5036564;28;20139;-66
2022/06/22 10:32:54;;;;;;;18.13;11.57;;;;;;;;;;5035606;28;20260;-64
2022/06/22 10:35:23;;;;;;;16.73;11.27;;;;;;;;;;5035669;28;20482;-64
2022/06/22 10:38:08;;;;;;;16.33;11.10;;;;;;;;;;5034692;28;20057;-65
2022/06/22 10:46:20;;;;;;;15.60;11.55;;;;;;;;;;5035586;28;20049;-65
2022/06/22 10:48:46;;;;;;;18.25;11.38;;;;;;;;;;5034545;28;20047;-65
2022/06/22 10:51:21;;;;;;;17.17;11.00;;;;;;;;;;5020574;28;20018;-65
2022/06/22 10:53:50;;;;;;;16.33;10.90;;;;;;;;;;5017637;28;20052;-64
2022/06/22 10:56:36;;;;;;;17.48;11.30;;;;;;;;;;5034837;28;20041;-66
2022/06/22 10:59:11;;;;;;;15.27;11.13;;;;;;;;;;5020138;28;20565;-66
2022/06/22 11:01:56;;;;;;;16.88;11.27;;;;;;;;;;5034642;28;20018;-67
2022/06/22 11:04:25;;;;;;;16.92;11.15;;;;;;;;;;5034545;28;20432;-67
2022/06/22 11:06:54;;;;;;;17.45;11.57;;;;;;;;;;5034839;28;20375;-67
2022/06/22 11:09:26;;;;;;;15.80;11.32;;;;;;;;;;5016075;28;20022;-67
2022/06/22 11:11:55;;;;;;;16.33;11.50;;;;;;;;;;5034364;28;20486;-67
2022/06/22 11:14:40;;;;;;;16.23;11.38;;;;;;;;;;5034583;28;20453;-68
2022/06/22 11:17:06;;;;;;;17.48;11.98;;;;;;;;;;5035401;28;20029;-68
2022/06/22 11:19:50;;;;;;;17.33;11.60;;;;;;;;;;5036891;28;20040;-67
2022/06/22 11:22:35;;;;;;;15.77;11.77;;;;;;;;;;5035812;28;20092;-67
2022/06/22 11:25:02;;;;;;;17.42;11.48;;;;;;;;;;5035915;28;20179;-67
2022/06/22 11:33:25;;;;;;;15.75;11.88;;;;;;;;;;5034859;28;20394;-67
2022/06/22 11:36:10;;;;;;;15.75;11.73;;;;;;;;;;5034678;28;20021;-67
2022/06/22 11:38:36;;;;;;;15.93;11.90;;;;;;;;;;5033764;28;20037;-66
2022/06/22 11:41:18;;;;;;;16.65;12.50;;;;;;;;;;5034947;28;20030;-67
2022/06/22 11:43:56;;;;;;;16.42;11.95;;;;;;;;;;5034665;28;20029;-67
2022/06/22 11:46:38;;;;;;;16.10;11.98;;;;;;;;;;5034678;28;20025;-67
2022/06/22 11:49:04;;;;;;;19.58;12.20;;;;;;;;;;5033433;28;20108;-67
2022/06/22 11:51:49;;;;;;;17.63;12.27;;;;;;;;;;5033985;28;20629;-67
2022/06/22 11:54:18;;;;;;;16.67;12.10;;;;;;;;;;5016380;28;20429;-67
2022/06/22 11:56:47;;;;;;;15.88;11.70;;;;;;;;;;5034189;28;20022;-67
2022/06/22 11:59:31;;;;;;;18.67;12.27;;;;;;;;;;5032684;28;20057;-68
2022/06/22 12:02:09;;;;;;;16.02;11.75;;;;;;;;;;5034037;28;20025;-66
2022/06/22 12:04:35;;;;;;;16.15;11.40;;;;;;;;;;5033813;28;20025;-67
2022/06/22 12:07:17;;;;;;;16.05;11.68;;;;;;;;;;5015794;28;20056;-67
2022/06/22 12:10:01;;;;;;;18.35;12.50;;;;;;;;;;5033352;28;20025;-66
2022/06/22 12:12:40;;;;;;;16.55;11.50;;;;;;;;;;5033790;28;20017;-66
2022/06/22 12:15:24;;;;;;;17.40;11.95;;;;;;;;;;5033396;28;20110;-67
2022/06/22 12:17:50;;;;;;;16.48;11.60;;;;;;;;;;5032964;28;20022;-67
2022/06/22 12:20:25;;;;;;;16.50;11.57;;;;;;;;;;5033650;28;20052;-67
2022/06/22 12:22:54;;;;;;;17.00;12.30;;;;;;;;;;5033165;28;20382;-67
2022/06/22 12:25:20;;;;;;;15.30;11.68;;;;;;;;;;5033057;28;20025;-67
2022/06/22 12:27:53;;;;;;;16.60;12.13;;;;;;;;;;5032855;28;20379;-67
2022/06/22 12:30:26;;;;;;;17.35;12.18;;;;;;;;;;5033010;28;20095;-68
2022/06/22 12:33:01;;;;;;;18.90;11.90;;;;;;;;;;5032172;28;20025;-67
2022/06/22 12:35:50;;;;;;;16.63;12.20;;;34.90;53.60;;;;;;5033230;28;20097;-67
2022/06/22 12:38:22;;;;;;;17.58;12.52;;;38.40;47.50;;;;;;5032298;28;20022;-67
2022/06/22 12:41:11;;;;;;;19.27;12.60;;;38.20;45.50;;;;;;5033436;28;20039;-67
2022/06/22 12:43:43;;;;;;;17.02;12.20;;;36.90;45.60;;;;;;5031969;28;20124;-68
2022/06/22 12:46:17;;;;;;;17.95;12.63;;;;;;;;;;5032474;28;20029;-67
2022/06/22 12:48:43;;;;;;;16.05;12.07;;;;;;;;;;5032160;28;20022;-67
2022/06/22 12:51:28;;;;;;;17.50;12.20;;;;;;;;;;5015095;28;20026;-65
2022/06/22 12:54:01;;;;;;;17.48;12.00;;;;;;;;;;5033016;28;20029;-67
2022/06/22 12:56:27;;;;;;;15.80;12.30;;;;;;;;;;5016219;28;20060;-65
2022/06/22 12:59:10;;;;;;;16.58;12.07;;;37.00;46.20;;;;;;5032355;28;20040;-66
2022/06/22 13:01:37;;;;;;;16.38;12.80;;;39.00;43.50;;;;;;5032537;28;20018;-67
2022/06/22 13:04:09;;;;;;;18.08;12.70;;;38.60;41.30;;;;;;5032476;28;20393;-65
2022/06/22 13:06:41;;;;;;;16.60;12.60;;;39.20;43.00;;;;;;5032560;28;20524;-66
2022/06/22 13:09:08;;;;;;;17.50;12.55;;;39.30;42.00;;;;;;5031459;28;20026;-67
2022/06/22 13:11:36;;;;;;;16.40;12.60;;;;;;;;;;5015200;28;20043;-66
2022/06/22 13:14:11;;;;;;;15.82;12.63;;;;;;;;;;5014663;28;20040;-66
2022/06/22 13:16:52;;;;;;;16.88;12.80;;;;;;;;;;5020511;23;20637;-65
2022/06/22 13:19:18;;;;;;;16.25;12.30;;;;;;;;;;5010915;28;20116;-66
2022/06/22 13:21:54;;;;;;;16.00;12.43;;;;;;;;;;5012480;28;20053;-65
2022/06/22 13:24:32;;;;;;;18.17;13.85;;;;;;;;;;5012413;28;20034;-65
2022/06/22 13:26:58;;;;;;;15.80;13.25;;;;;;;;;;4994403;28;20351;-66
2022/06/22 13:29:24;;;;;;;16.65;13.35;;;;;;;;;;5011284;28;20018;-65
2022/06/22 13:31:51;;;;;;;17.40;13.13;;;;;;;;;;4994257;28;20034;-66
2022/06/22 13:34:48;;;;;;;;;;;39.40;40.60;;;;;;5010994;28;20030;-65
2022/06/22 13:37:27;;;;;;;;;;;40.20;42.50;;;;;;4982347;28;20345;-64
2022/06/22 13:40:06;;;;;;;15.73;12.60;;;40.10;43.80;;;;;;5011777;28;19996;-64
2022/06/22 13:43:11;;;;;;;16.23;12.40;;;39.60;42.70;;;;;;4995572;28;20033;-64
2022/06/22 13:45:43;;;;;;;16.58;12.40;;;38.50;41.30;;;;;;5016110;28;20042;-65
2022/06/22 13:48:36;;;;;;;16.80;13.75;;;39.30;42.50;;;;;;4997683;28;20029;-64
2022/06/22 13:51:19;;;;;;;16.50;12.48;;;39.70;42.90;;;;;;5015436;28;20054;-64
2022/06/22 13:54:00;;;;;;;16.00;12.90;;;39.80;42.10;;;;;;4661805;28;10000495;-66
2022/06/22 13:56:47;;;;;;;16.83;12.77;;;40.20;41.60;;;;;;4991439;28;20026;-65
2022/06/22 13:59:49;;;;;;;17.73;12.60;;;40.60;40.60;;;;;;4992003;28;20057;-65
2022/06/22 14:02:34;;;;;;;16.63;12.65;;;40.50;40.70;;;;;;5009041;28;20026;-66
2022/06/22 14:05:18;;;;;;;16.83;12.98;;;;;;;;;;5012053;28;20073;-65
2022/06/22 14:07:50;;;;;;;15.70;13.00;;;;;;;;;;5007093;28;20026;-65
2022/06/22 14:10:35;;;;;;;15.73;12.77;;;;;;;;;;4996044;28;20502;-65
2022/06/22 14:13:10;;;;;;;17.00;13.40;;;;;;;;;;4991538;28;20065;-65
2022/06/22 14:15:44;;;;;;;16.73;13.73;;;;;;;;;;4973261;28;20049;-62
2022/06/22 14:18:24;;;;;;;17.70;13.40;;;;;;;;;;4992145;28;20121;-63
2022/06/22 14:20:53;;;;;;;17.15;13.20;;;;;;;;;;4993107;28;20221;-64
2022/06/22 14:23:20;;;;;;;16.00;13.20;;;;;;;;;;4993985;28;20034;-64
2022/06/22 14:25:52;;;;;;;17.92;14.02;;;;;;;;;;4994286;28;20026;-64
2022/06/22 14:28:26;;;;;;;16.65;13.07;;;;;;;;;;4811333;28;10000580;-65
2022/06/22 14:31:11;;;;;;;16.90;12.80;;;;;;;;;;5011605;28;20226;-64
2022/06/22 14:33:38;;;;;;;16.25;12.88;;;;;;;;;;5011915;28;20045;-65
2022/06/22 14:36:07;;;;;;;16.42;13.65;;;;;;;;;;4990912;28;20034;-65
2022/06/22 14:38:41;;;;;;;16.60;13.30;;;;;;;;;;4996199;28;20120;-65
2022/06/22 14:41:26;;;;;;;16.73;13.52;;;;;;;;;;5001721;28;20710;-64
2022/06/22 14:43:52;;;;;;;17.60;13.85;;;;;;;;;;4974657;28;20031;-65
2022/06/22 14:46:23;;;;;;;16.70;13.73;;;;;;;;;;4992013;28;20456;-64
2022/06/22 14:48:55;;;;;;;16.42;13.05;;;;;;;;;;4974052;28;20070;-65
2022/06/22 14:51:24;;;;;;;15.70;12.98;;;;;;;;;;4992495;28;20030;-64
2022/06/22 14:54:03;;;;;;;16.85;12.95;;;;;;;;;;5006090;28;20113;-63
2022/06/22 14:56:42;;;;;;;16.85;12.90;;;;;;;;;;5011620;28;20529;-62
2022/06/22 14:59:14;;;;;;;16.45;13.25;;;;;;;;;;5010752;28;20083;-64
2022/06/22 15:01:47;;;;;;;16.13;13.00;;;;;;;;;;4998596;28;20033;-63
2022/06/22 15:04:16;;;;;;;16.15;12.98;;;;;;;;;;4973726;28;20037;-63
2022/06/22 15:06:46;;;;;;;16.15;13.63;;;;;;;;;;4973809;28;20510;-62
2022/06/22 15:09:20;;;;;;;17.00;13.43;;;;;;;;;;5004533;28;20062;-63
2022/06/22 15:14:59;;;;;;;17.30;12.77;;;;;;;;;;5008362;28;20455;-63